sensor_id;sensor_type;location;lat;lon;timestamp;P1;durP1;ratioP1;P2;durP2;ratioP2
15114;SDS011;7658;51.456;7.622;2023-11-19T00:00:31;4.57;;;4.27;;
15114;SDS011;7658;51.456;7.622;2023-11-19T00:02:57;4.37;;;3.97;;
15114;SDS011;7658;51.456;7.622;2023-11-19T00:05:22;4.30;;;4.00;;
15114;SDS011;7658;51.456;7.622;2023-11-19T00:07:48;4.60;;;4.30;;
15114;SDS011;7658;51.456;7.622;2023-11-19T00:10:15;4.10;;;3.90;;
15114;SDS011;7658;51.456;7.622;2023-11-19T00:12:44;3.67;;;3.47;;
15114;SDS011;7658;51.456;7.622;2023-11-19T00:15:12;4.20;;;4.00;;
15114;SDS011;7658;51.456;7.622;2023-11-19T00:17:42;4.00;;;3.80;;
15114;SDS011;7658;51.456;7.622;2023-11-19T00:20:13;4.37;;;3.90;;
15114;SDS011;7658;51.456;7.622;2023-11-19T00:22:40;4.03;;;3.80;;
15114;SDS011;7658;51.456;7.622;2023-11-19T00:25:07;3.90;;;3.70;;
15114;SDS011;7658;51.456;7.622;2023-11-19T00:27:36;4.30;;;4.00;;
15114;SDS011;7658;51.456;7.622;2023-11-19T00:30:05;4.40;;;4.10;;
15114;SDS011;7658;51.456;7.622;2023-11-19T00:32:32;4.10;;;3.90;;
15114;SDS011;7658;51.456;7.622;2023-11-19T00:34:58;4.20;;;3.90;;
15114;SDS011;7658;51.456;7.622;2023-11-19T00:37:23;4.53;;;4.00;;
15114;SDS011;7658;51.456;7.622;2023-11-19T00:39:49;4.45;;;4.03;;
15114;SDS011;7658;51.456;7.622;2023-11-19T00:42:17;4.15;;;3.95;;
15114;SDS011;7658;51.456;7.622;2023-11-19T00:44:42;4.00;;;3.78;;
15114;SDS011;7658;51.456;7.622;2023-11-19T00:47:08;4.03;;;3.83;;
15114;SDS011;7658;51.456;7.622;2023-11-19T00:49:34;4.50;;;4.10;;
15114;SDS011;7658;51.456;7.622;2023-11-19T00:52:00;4.20;;;4.00;;
15114;SDS011;7658;51.456;7.622;2023-11-19T00:54:27;4.90;;;4.57;;
15114;SDS011;7658;51.456;7.622;2023-11-19T00:56:53;4.88;;;4.32;;
15114;SDS011;7658;51.456;7.622;2023-11-19T00:59:19;4.90;;;4.40;;
15114;SDS011;7658;51.456;7.622;2023-11-19T01:01:45;4.93;;;4.63;;
15114;SDS011;7658;51.456;7.622;2023-11-19T01:04:13;4.97;;;4.67;;
15114;SDS011;7658;51.456;7.622;2023-11-19T01:06:39;5.18;;;4.78;;
15114;SDS011;7658;51.456;7.622;2023-11-19T01:09:07;5.07;;;4.78;;
15114;SDS011;7658;51.456;7.622;2023-11-19T01:11:34;5.53;;;4.97;;
15114;SDS011;7658;51.456;7.622;2023-11-19T01:14:00;5.45;;;5.03;;
15114;SDS011;7658;51.456;7.622;2023-11-19T01:16:26;5.72;;;5.32;;
15114;SDS011;7658;51.456;7.622;2023-11-19T01:18:52;6.60;;;5.32;;
15114;SDS011;7658;51.456;7.622;2023-11-19T01:21:18;5.63;;;5.22;;
15114;SDS011;7658;51.456;7.622;2023-11-19T01:23:44;6.10;;;5.53;;
15114;SDS011;7658;51.456;7.622;2023-11-19T01:26:11;5.78;;;5.28;;
15114;SDS011;7658;51.456;7.622;2023-11-19T01:28:37;5.65;;;5.15;;
15114;SDS011;7658;51.456;7.622;2023-11-19T01:31:10;6.57;;;5.93;;
15114;SDS011;7658;51.456;7.622;2023-11-19T01:33:40;6.80;;;6.20;;
15114;SDS011;7658;51.456;7.622;2023-11-19T01:36:07;6.28;;;5.78;;
15114;SDS011;7658;51.456;7.622;2023-11-19T01:38:33;6.93;;;6.32;;
15114;SDS011;7658;51.456;7.622;2023-11-19T01:40:59;7.40;;;6.55;;
15114;SDS011;7658;51.456;7.622;2023-11-19T01:43:37;7.85;;;7.07;;
15114;SDS011;7658;51.456;7.622;2023-11-19T01:46:06;7.18;;;6.47;;
15114;SDS011;7658;51.456;7.622;2023-11-19T01:48:34;8.18;;;7.22;;
15114;SDS011;7658;51.456;7.622;2023-11-19T01:51:02;10.05;;;6.97;;
15114;SDS011;7658;51.456;7.622;2023-11-19T01:53:29;8.27;;;7.00;;
15114;SDS011;7658;51.456;7.622;2023-11-19T01:55:56;7.82;;;7.07;;
15114;SDS011;7658;51.456;7.622;2023-11-19T01:58:23;8.20;;;7.10;;
15114;SDS011;7658;51.456;7.622;2023-11-19T02:00:49;7.80;;;7.10;;
15114;SDS011;7658;51.456;7.622;2023-11-19T02:03:15;8.07;;;6.78;;
15114;SDS011;7658;51.456;7.622;2023-11-19T02:05:42;8.73;;;7.07;;
15114;SDS011;7658;51.456;7.622;2023-11-19T02:08:08;8.18;;;6.65;;
15114;SDS011;7658;51.456;7.622;2023-11-19T02:10:34;7.47;;;6.73;;
15114;SDS011;7658;51.456;7.622;2023-11-19T02:13:00;7.75;;;7.05;;
15114;SDS011;7658;51.456;7.622;2023-11-19T02:15:26;7.70;;;7.00;;
15114;SDS011;7658;51.456;7.622;2023-11-19T02:17:53;7.30;;;6.70;;
15114;SDS011;7658;51.456;7.622;2023-11-19T02:20:18;7.65;;;6.82;;
15114;SDS011;7658;51.456;7.622;2023-11-19T02:22:48;6.75;;;6.13;;
15114;SDS011;7658;51.456;7.622;2023-11-19T02:25:25;7.35;;;6.57;;
15114;SDS011;7658;51.456;7.622;2023-11-19T02:27:58;6.45;;;5.85;;
15114;SDS011;7658;51.456;7.622;2023-11-19T02:30:25;6.10;;;5.60;;
15114;SDS011;7658;51.456;7.622;2023-11-19T02:32:55;6.38;;;5.78;;
15114;SDS011;7658;51.456;7.622;2023-11-19T02:35:22;7.30;;;6.60;;
15114;SDS011;7658;51.456;7.622;2023-11-19T02:37:49;6.75;;;6.03;;
15114;SDS011;7658;51.456;7.622;2023-11-19T02:40:15;8.05;;;6.65;;
15114;SDS011;7658;51.456;7.622;2023-11-19T02:42:40;7.85;;;6.72;;
15114;SDS011;7658;51.456;7.622;2023-11-19T02:45:07;7.47;;;6.78;;
15114;SDS011;7658;51.456;7.622;2023-11-19T02:47:38;8.95;;;7.35;;
15114;SDS011;7658;51.456;7.622;2023-11-19T02:50:06;7.72;;;6.93;;
15114;SDS011;7658;51.456;7.622;2023-11-19T02:52:38;8.27;;;7.32;;
15114;SDS011;7658;51.456;7.622;2023-11-19T02:55:05;7.90;;;7.10;;
15114;SDS011;7658;51.456;7.622;2023-11-19T02:57:35;10.93;;;6.90;;
15114;SDS011;7658;51.456;7.622;2023-11-19T03:00:01;9.55;;;6.22;;
15114;SDS011;7658;51.456;7.622;2023-11-19T03:02:38;7.88;;;6.13;;
15114;SDS011;7658;51.456;7.622;2023-11-19T03:05:09;9.10;;;6.05;;
15114;SDS011;7658;51.456;7.622;2023-11-19T03:07:37;10.70;;;6.15;;
15114;SDS011;7658;51.456;7.622;2023-11-19T03:10:02;14.35;;;6.90;;
15114;SDS011;7658;51.456;7.622;2023-11-19T03:12:30;10.23;;;6.43;;
15114;SDS011;7658;51.456;7.622;2023-11-19T03:14:56;13.60;;;6.50;;
15114;SDS011;7658;51.456;7.622;2023-11-19T03:17:22;6.68;;;5.60;;
15114;SDS011;7658;51.456;7.622;2023-11-19T03:19:49;8.68;;;5.43;;
15114;SDS011;7658;51.456;7.622;2023-11-19T03:22:15;9.25;;;5.18;;
15114;SDS011;7658;51.456;7.622;2023-11-19T03:24:40;13.90;;;6.18;;
15114;SDS011;7658;51.456;7.622;2023-11-19T03:27:06;13.68;;;5.85;;
15114;SDS011;7658;51.456;7.622;2023-11-19T03:29:32;15.43;;;5.75;;
15114;SDS011;7658;51.456;7.622;2023-11-19T03:31:58;11.43;;;6.07;;
15114;SDS011;7658;51.456;7.622;2023-11-19T03:34:23;14.57;;;6.63;;
15114;SDS011;7658;51.456;7.622;2023-11-19T03:36:49;19.73;;;6.38;;
15114;SDS011;7658;51.456;7.622;2023-11-19T03:39:15;16.92;;;6.10;;
15114;SDS011;7658;51.456;7.622;2023-11-19T03:41:41;19.67;;;7.15;;
15114;SDS011;7658;51.456;7.622;2023-11-19T03:44:06;16.65;;;5.90;;
15114;SDS011;7658;51.456;7.622;2023-11-19T03:46:32;19.27;;;6.15;;
15114;SDS011;7658;51.456;7.622;2023-11-19T03:48:58;21.00;;;7.47;;
15114;SDS011;7658;51.456;7.622;2023-11-19T03:51:24;19.63;;;6.75;;
15114;SDS011;7658;51.456;7.622;2023-11-19T03:53:50;17.88;;;7.32;;
15114;SDS011;7658;51.456;7.622;2023-11-19T03:56:16;26.92;;;7.80;;
15114;SDS011;7658;51.456;7.622;2023-11-19T03:58:41;17.38;;;6.70;;
15114;SDS011;7658;51.456;7.622;2023-11-19T04:01:11;22.38;;;6.53;;
15114;SDS011;7658;51.456;7.622;2023-11-19T04:03:40;20.13;;;6.65;;
15114;SDS011;7658;51.456;7.622;2023-11-19T04:06:06;16.13;;;6.47;;
15114;SDS011;7658;51.456;7.622;2023-11-19T04:08:32;17.73;;;7.13;;
15114;SDS011;7658;51.456;7.622;2023-11-19T04:10:57;20.23;;;6.88;;
15114;SDS011;7658;51.456;7.622;2023-11-19T04:13:23;16.70;;;6.22;;
15114;SDS011;7658;51.456;7.622;2023-11-19T04:15:49;16.23;;;6.43;;
15114;SDS011;7658;51.456;7.622;2023-11-19T04:18:15;18.50;;;6.85;;
15114;SDS011;7658;51.456;7.622;2023-11-19T04:20:41;19.15;;;7.15;;
15114;SDS011;7658;51.456;7.622;2023-11-19T04:23:10;17.88;;;6.18;;
15114;SDS011;7658;51.456;7.622;2023-11-19T04:25:36;18.55;;;6.60;;
15114;SDS011;7658;51.456;7.622;2023-11-19T04:28:02;24.25;;;6.43;;
15114;SDS011;7658;51.456;7.622;2023-11-19T04:30:28;19.65;;;5.53;;
15114;SDS011;7658;51.456;7.622;2023-11-19T04:32:54;21.98;;;6.78;;
15114;SDS011;7658;51.456;7.622;2023-11-19T04:35:19;14.93;;;6.03;;
15114;SDS011;7658;51.456;7.622;2023-11-19T04:37:46;15.82;;;5.35;;
15114;SDS011;7658;51.456;7.622;2023-11-19T04:40:12;18.17;;;5.47;;
15114;SDS011;7658;51.456;7.622;2023-11-19T04:42:38;16.70;;;5.75;;
15114;SDS011;7658;51.456;7.622;2023-11-19T04:45:06;15.65;;;5.40;;
15114;SDS011;7658;51.456;7.622;2023-11-19T04:47:35;15.68;;;6.38;;
15114;SDS011;7658;51.456;7.622;2023-11-19T04:50:01;21.70;;;6.60;;
15114;SDS011;7658;51.456;7.622;2023-11-19T04:52:28;25.13;;;6.75;;
15114;SDS011;7658;51.456;7.622;2023-11-19T04:54:54;19.70;;;6.47;;
15114;SDS011;7658;51.456;7.622;2023-11-19T04:57:20;16.13;;;6.15;;
15114;SDS011;7658;51.456;7.622;2023-11-19T04:59:46;18.48;;;5.78;;
15114;SDS011;7658;51.456;7.622;2023-11-19T05:02:12;20.00;;;6.43;;
15114;SDS011;7658;51.456;7.622;2023-11-19T05:04:41;17.70;;;5.78;;
15114;SDS011;7658;51.456;7.622;2023-11-19T05:07:09;21.55;;;6.25;;
15114;SDS011;7658;51.456;7.622;2023-11-19T05:09:35;18.65;;;6.40;;
15114;SDS011;7658;51.456;7.622;2023-11-19T05:12:00;20.10;;;6.32;;
15114;SDS011;7658;51.456;7.622;2023-11-19T05:14:27;20.38;;;6.13;;
15114;SDS011;7658;51.456;7.622;2023-11-19T05:16:53;24.98;;;6.82;;
15114;SDS011;7658;51.456;7.622;2023-11-19T05:19:18;25.17;;;7.80;;
15114;SDS011;7658;51.456;7.622;2023-11-19T05:21:44;18.17;;;6.55;;
15114;SDS011;7658;51.456;7.622;2023-11-19T05:24:10;25.20;;;6.88;;
15114;SDS011;7658;51.456;7.622;2023-11-19T05:26:39;19.65;;;6.63;;
15114;SDS011;7658;51.456;7.622;2023-11-19T05:29:05;19.35;;;6.13;;
15114;SDS011;7658;51.456;7.622;2023-11-19T05:31:31;24.02;;;6.93;;
15114;SDS011;7658;51.456;7.622;2023-11-19T05:33:57;24.85;;;6.57;;
15114;SDS011;7658;51.456;7.622;2023-11-19T05:36:23;18.25;;;5.97;;
15114;SDS011;7658;51.456;7.622;2023-11-19T05:38:48;19.67;;;6.47;;
15114;SDS011;7658;51.456;7.622;2023-11-19T05:41:14;25.50;;;6.93;;
15114;SDS011;7658;51.456;7.622;2023-11-19T05:43:40;20.58;;;6.20;;
15114;SDS011;7658;51.456;7.622;2023-11-19T05:46:06;21.52;;;8.18;;
15114;SDS011;7658;51.456;7.622;2023-11-19T05:48:32;24.08;;;8.10;;
15114;SDS011;7658;51.456;7.622;2023-11-19T05:50:58;20.35;;;6.93;;
15114;SDS011;7658;51.456;7.622;2023-11-19T05:53:25;20.27;;;6.75;;
15114;SDS011;7658;51.456;7.622;2023-11-19T05:55:51;23.70;;;6.68;;
15114;SDS011;7658;51.456;7.622;2023-11-19T05:58:25;20.65;;;6.57;;
15114;SDS011;7658;51.456;7.622;2023-11-19T06:00:53;25.95;;;7.07;;
15114;SDS011;7658;51.456;7.622;2023-11-19T06:03:22;22.88;;;6.75;;
15114;SDS011;7658;51.456;7.622;2023-11-19T06:05:49;21.58;;;8.77;;
15114;SDS011;7658;51.456;7.622;2023-11-19T06:08:15;27.98;;;6.85;;
15114;SDS011;7658;51.456;7.622;2023-11-19T06:10:41;20.08;;;6.03;;
15114;SDS011;7658;51.456;7.622;2023-11-19T06:13:07;29.75;;;6.70;;
15114;SDS011;7658;51.456;7.622;2023-11-19T06:15:35;28.55;;;7.43;;
15114;SDS011;7658;51.456;7.622;2023-11-19T06:18:01;17.80;;;5.93;;
15114;SDS011;7658;51.456;7.622;2023-11-19T06:20:32;31.58;;;8.20;;
15114;SDS011;7658;51.456;7.622;2023-11-19T06:22:58;32.08;;;7.47;;
15114;SDS011;7658;51.456;7.622;2023-11-19T06:25:24;27.30;;;7.15;;
15114;SDS011;7658;51.456;7.622;2023-11-19T06:27:50;17.45;;;6.40;;
15114;SDS011;7658;51.456;7.622;2023-11-19T06:30:17;22.48;;;7.30;;
15114;SDS011;7658;51.456;7.622;2023-11-19T06:32:44;26.33;;;7.25;;
15114;SDS011;7658;51.456;7.622;2023-11-19T06:35:10;18.83;;;6.45;;
15114;SDS011;7658;51.456;7.622;2023-11-19T06:37:37;20.08;;;7.18;;
15114;SDS011;7658;51.456;7.622;2023-11-19T06:40:04;28.85;;;6.35;;
15114;SDS011;7658;51.456;7.622;2023-11-19T06:42:30;28.45;;;7.18;;
15114;SDS011;7658;51.456;7.622;2023-11-19T06:44:56;24.42;;;6.93;;
15114;SDS011;7658;51.456;7.622;2023-11-19T06:47:25;20.45;;;6.97;;
15114;SDS011;7658;51.456;7.622;2023-11-19T06:49:52;20.08;;;5.90;;
15114;SDS011;7658;51.456;7.622;2023-11-19T06:52:18;18.58;;;6.57;;
15114;SDS011;7658;51.456;7.622;2023-11-19T06:54:44;28.25;;;6.53;;
15114;SDS011;7658;51.456;7.622;2023-11-19T06:57:12;24.42;;;7.32;;
15114;SDS011;7658;51.456;7.622;2023-11-19T06:59:39;26.55;;;7.28;;
15114;SDS011;7658;51.456;7.622;2023-11-19T07:02:05;24.45;;;7.47;;
15114;SDS011;7658;51.456;7.622;2023-11-19T07:04:31;28.35;;;7.35;;
15114;SDS011;7658;51.456;7.622;2023-11-19T07:06:58;15.20;;;6.50;;
15114;SDS011;7658;51.456;7.622;2023-11-19T07:09:27;24.05;;;7.35;;
15114;SDS011;7658;51.456;7.622;2023-11-19T07:11:52;24.30;;;6.22;;
15114;SDS011;7658;51.456;7.622;2023-11-19T07:14:18;24.42;;;7.45;;
15114;SDS011;7658;51.456;7.622;2023-11-19T07:16:44;23.45;;;6.93;;
15114;SDS011;7658;51.456;7.622;2023-11-19T07:19:11;22.25;;;6.25;;
15114;SDS011;7658;51.456;7.622;2023-11-19T07:21:37;23.23;;;7.10;;
15114;SDS011;7658;51.456;7.622;2023-11-19T07:24:09;25.33;;;7.00;;
15114;SDS011;7658;51.456;7.622;2023-11-19T07:26:40;18.95;;;6.47;;
15114;SDS011;7658;51.456;7.622;2023-11-19T07:29:07;22.02;;;8.05;;
15114;SDS011;7658;51.456;7.622;2023-11-19T07:31:33;22.98;;;7.28;;
15114;SDS011;7658;51.456;7.622;2023-11-19T07:33:59;19.98;;;6.15;;
15114;SDS011;7658;51.456;7.622;2023-11-19T07:36:25;17.48;;;6.47;;
15114;SDS011;7658;51.456;7.622;2023-11-19T07:38:50;24.52;;;6.38;;
15114;SDS011;7658;51.456;7.622;2023-11-19T07:41:16;23.70;;;6.03;;
15114;SDS011;7658;51.456;7.622;2023-11-19T07:43:45;22.35;;;6.53;;
15114;SDS011;7658;51.456;7.622;2023-11-19T07:46:14;20.67;;;6.80;;
15114;SDS011;7658;51.456;7.622;2023-11-19T07:48:40;22.60;;;7.85;;
15114;SDS011;7658;51.456;7.622;2023-11-19T07:51:07;22.95;;;7.88;;
15114;SDS011;7658;51.456;7.622;2023-11-19T07:53:33;17.17;;;6.60;;
15114;SDS011;7658;51.456;7.622;2023-11-19T07:56:00;22.17;;;6.32;;
15114;SDS011;7658;51.456;7.622;2023-11-19T07:58:26;21.92;;;7.35;;
15114;SDS011;7658;51.456;7.622;2023-11-19T08:00:51;26.08;;;7.18;;
15114;SDS011;7658;51.456;7.622;2023-11-19T08:03:17;22.40;;;6.28;;
15114;SDS011;7658;51.456;7.622;2023-11-19T08:05:49;27.45;;;7.57;;
15114;SDS011;7658;51.456;7.622;2023-11-19T08:08:15;28.08;;;7.25;;
15114;SDS011;7658;51.456;7.622;2023-11-19T08:10:42;25.13;;;6.72;;
15114;SDS011;7658;51.456;7.622;2023-11-19T08:13:09;23.23;;;6.72;;
15114;SDS011;7658;51.456;7.622;2023-11-19T08:15:36;27.02;;;6.85;;
15114;SDS011;7658;51.456;7.622;2023-11-19T08:18:02;24.95;;;7.20;;
15114;SDS011;7658;51.456;7.622;2023-11-19T08:20:27;24.40;;;7.00;;
15114;SDS011;7658;51.456;7.622;2023-11-19T08:22:53;27.63;;;7.03;;
15114;SDS011;7658;51.456;7.622;2023-11-19T08:25:19;25.73;;;7.57;;
15114;SDS011;7658;51.456;7.622;2023-11-19T08:27:45;19.13;;;7.13;;
15114;SDS011;7658;51.456;7.622;2023-11-19T08:30:11;20.33;;;7.25;;
15114;SDS011;7658;51.456;7.622;2023-11-19T08:32:38;38.58;;;8.75;;
15114;SDS011;7658;51.456;7.622;2023-11-19T08:35:04;30.30;;;8.13;;
15114;SDS011;7658;51.456;7.622;2023-11-19T08:37:30;25.83;;;7.03;;
15114;SDS011;7658;51.456;7.622;2023-11-19T08:39:56;21.80;;;6.30;;
15114;SDS011;7658;51.456;7.622;2023-11-19T08:42:22;21.63;;;7.00;;
15114;SDS011;7658;51.456;7.622;2023-11-19T08:44:50;27.45;;;7.28;;
15114;SDS011;7658;51.456;7.622;2023-11-19T08:47:19;21.92;;;7.07;;
15114;SDS011;7658;51.456;7.622;2023-11-19T08:49:47;26.77;;;7.85;;
15114;SDS011;7658;51.456;7.622;2023-11-19T08:52:13;27.67;;;7.70;;
15114;SDS011;7658;51.456;7.622;2023-11-19T08:54:42;31.23;;;8.45;;
15114;SDS011;7658;51.456;7.622;2023-11-19T08:57:08;22.88;;;7.45;;
15114;SDS011;7658;51.456;7.622;2023-11-19T08:59:34;15.40;;;6.43;;
15114;SDS011;7658;51.456;7.622;2023-11-19T09:02:03;27.55;;;7.57;;
15114;SDS011;7658;51.456;7.622;2023-11-19T09:04:29;25.63;;;6.88;;
15114;SDS011;7658;51.456;7.622;2023-11-19T09:06:57;21.58;;;6.88;;
15114;SDS011;7658;51.456;7.622;2023-11-19T09:09:23;20.35;;;7.22;;
15114;SDS011;7658;51.456;7.622;2023-11-19T09:11:49;32.53;;;9.00;;
15114;SDS011;7658;51.456;7.622;2023-11-19T09:14:15;25.45;;;7.75;;
15114;SDS011;7658;51.456;7.622;2023-11-19T09:16:40;30.48;;;7.20;;
15114;SDS011;7658;51.456;7.622;2023-11-19T09:19:06;25.13;;;7.10;;
15114;SDS011;7658;51.456;7.622;2023-11-19T09:21:32;27.08;;;8.05;;
15114;SDS011;7658;51.456;7.622;2023-11-19T09:24:01;27.38;;;7.88;;
15114;SDS011;7658;51.456;7.622;2023-11-19T09:26:27;30.20;;;7.57;;
15114;SDS011;7658;51.456;7.622;2023-11-19T09:28:53;24.13;;;7.25;;
15114;SDS011;7658;51.456;7.622;2023-11-19T09:31:18;30.77;;;8.02;;
15114;SDS011;7658;51.456;7.622;2023-11-19T09:33:44;34.17;;;8.13;;
15114;SDS011;7658;51.456;7.622;2023-11-19T09:36:13;32.67;;;7.45;;
15114;SDS011;7658;51.456;7.622;2023-11-19T09:38:40;29.17;;;7.85;;
15114;SDS011;7658;51.456;7.622;2023-11-19T09:41:06;28.73;;;7.20;;
15114;SDS011;7658;51.456;7.622;2023-11-19T09:43:35;26.00;;;7.13;;
15114;SDS011;7658;51.456;7.622;2023-11-19T09:46:04;27.35;;;6.85;;
15114;SDS011;7658;51.456;7.622;2023-11-19T09:48:36;23.75;;;7.65;;
15114;SDS011;7658;51.456;7.622;2023-11-19T09:51:02;20.83;;;7.13;;
15114;SDS011;7658;51.456;7.622;2023-11-19T09:53:30;30.15;;;7.18;;
15114;SDS011;7658;51.456;7.622;2023-11-19T09:56:04;30.80;;;7.63;;
15114;SDS011;7658;51.456;7.622;2023-11-19T09:58:31;28.23;;;8.13;;
15114;SDS011;7658;51.456;7.622;2023-11-19T10:00:58;25.92;;;7.25;;
15114;SDS011;7658;51.456;7.622;2023-11-19T10:03:25;24.05;;;6.97;;
15114;SDS011;7658;51.456;7.622;2023-11-19T10:05:54;24.15;;;7.05;;
15114;SDS011;7658;51.456;7.622;2023-11-19T10:08:21;22.17;;;6.97;;
15114;SDS011;7658;51.456;7.622;2023-11-19T10:10:48;35.78;;;8.05;;
15114;SDS011;7658;51.456;7.622;2023-11-19T10:13:14;26.92;;;7.80;;
15114;SDS011;7658;51.456;7.622;2023-11-19T10:15:40;28.65;;;7.05;;
15114;SDS011;7658;51.456;7.622;2023-11-19T10:18:06;21.20;;;7.78;;
15114;SDS011;7658;51.456;7.622;2023-11-19T10:20:36;30.95;;;8.25;;
15114;SDS011;7658;51.456;7.622;2023-11-19T10:23:02;29.48;;;8.00;;
15114;SDS011;7658;51.456;7.622;2023-11-19T10:25:28;21.63;;;6.47;;
15114;SDS011;7658;51.456;7.622;2023-11-19T10:27:55;21.70;;;8.43;;
15114;SDS011;7658;51.456;7.622;2023-11-19T10:35:53;24.38;;;7.10;;
15114;SDS011;7658;51.456;7.622;2023-11-19T10:38:21;22.92;;;7.07;;
15114;SDS011;7658;51.456;7.622;2023-11-19T10:40:48;26.67;;;7.70;;
15114;SDS011;7658;51.456;7.622;2023-11-19T10:43:15;24.30;;;6.82;;
15114;SDS011;7658;51.456;7.622;2023-11-19T10:45:42;24.42;;;7.13;;
15114;SDS011;7658;51.456;7.622;2023-11-19T10:48:08;30.25;;;8.50;;
15114;SDS011;7658;51.456;7.622;2023-11-19T10:50:35;24.20;;;7.28;;
15114;SDS011;7658;51.456;7.622;2023-11-19T10:53:03;25.75;;;7.43;;
15114;SDS011;7658;51.456;7.622;2023-11-19T10:55:30;22.23;;;7.88;;
15114;SDS011;7658;51.456;7.622;2023-11-19T10:58:01;27.95;;;7.50;;
15114;SDS011;7658;51.456;7.622;2023-11-19T11:01:11;25.23;;;7.20;;
15114;SDS011;7658;51.456;7.622;2023-11-19T11:03:21;17.13;;;6.50;;
15114;SDS011;7658;51.456;7.622;2023-11-19T11:05:51;24.40;;;7.68;;
15114;SDS011;7658;51.456;7.622;2023-11-19T11:08:17;31.85;;;8.35;;
15114;SDS011;7658;51.456;7.622;2023-11-19T11:10:45;25.90;;;7.22;;
15114;SDS011;7658;51.456;7.622;2023-11-19T11:13:20;18.17;;;6.63;;
15114;SDS011;7658;51.456;7.622;2023-11-19T11:15:51;32.63;;;7.95;;
15114;SDS011;7658;51.456;7.622;2023-11-19T11:18:19;24.67;;;7.45;;
15114;SDS011;7658;51.456;7.622;2023-11-19T11:20:45;39.85;;;8.23;;
15114;SDS011;7658;51.456;7.622;2023-11-19T11:39:45;28.15;;;7.32;;
15114;SDS011;7658;51.456;7.622;2023-11-19T11:50:09;31.55;;;7.97;;
15114;SDS011;7658;51.456;7.622;2023-11-19T11:55:37;23.83;;;7.18;;
15114;SDS011;7658;51.456;7.622;2023-11-19T11:58:20;26.75;;;7.20;;
15114;SDS011;7658;51.456;7.622;2023-11-19T12:00:56;25.13;;;8.13;;
15114;SDS011;7658;51.456;7.622;2023-11-19T12:03:26;24.48;;;6.85;;
15114;SDS011;7658;51.456;7.622;2023-11-19T12:05:53;21.42;;;7.90;;
15114;SDS011;7658;51.456;7.622;2023-11-19T12:08:20;22.83;;;6.53;;
15114;SDS011;7658;51.456;7.622;2023-11-19T12:10:51;26.92;;;8.00;;
15114;SDS011;7658;51.456;7.622;2023-11-19T12:13:18;31.50;;;7.68;;
15114;SDS011;7658;51.456;7.622;2023-11-19T12:18:23;18.63;;;6.20;;
15114;SDS011;7658;51.456;7.622;2023-11-19T12:20:51;17.33;;;5.80;;
15114;SDS011;7658;51.456;7.622;2023-11-19T12:23:17;22.08;;;6.93;;
15114;SDS011;7658;51.456;7.622;2023-11-19T12:25:42;27.52;;;6.60;;
15114;SDS011;7658;51.456;7.622;2023-11-19T12:28:13;18.58;;;6.70;;
15114;SDS011;7658;51.456;7.622;2023-11-19T12:30:42;27.33;;;7.18;;
15114;SDS011;7658;51.456;7.622;2023-11-19T12:33:09;18.65;;;5.65;;
15114;SDS011;7658;51.456;7.622;2023-11-19T12:35:44;19.98;;;6.63;;
15114;SDS011;7658;51.456;7.622;2023-11-19T12:38:45;16.50;;;6.03;;
15114;SDS011;7658;51.456;7.622;2023-11-19T12:43:30;15.63;;;5.43;;
15114;SDS011;7658;51.456;7.622;2023-11-19T12:45:57;22.00;;;6.60;;
15114;SDS011;7658;51.456;7.622;2023-11-19T12:48:23;24.30;;;6.43;;
15114;SDS011;7658;51.456;7.622;2023-11-19T12:50:56;23.38;;;6.68;;
15114;SDS011;7658;51.456;7.622;2023-11-19T12:53:23;24.10;;;6.18;;
15114;SDS011;7658;51.456;7.622;2023-11-19T12:55:50;22.23;;;5.45;;
15114;SDS011;7658;51.456;7.622;2023-11-19T12:58:29;25.58;;;6.50;;
15114;SDS011;7658;51.456;7.622;2023-11-19T13:01:02;21.17;;;6.88;;
15114;SDS011;7658;51.456;7.622;2023-11-19T13:03:32;13.63;;;5.95;;
15114;SDS011;7658;51.456;7.622;2023-11-19T13:06:02;20.42;;;6.13;;
15114;SDS011;7658;51.456;7.622;2023-11-19T13:08:51;20.50;;;6.15;;
15114;SDS011;7658;51.456;7.622;2023-11-19T13:11:31;14.70;;;5.35;;
15114;SDS011;7658;51.456;7.622;2023-11-19T13:16:33;20.50;;;6.18;;
15114;SDS011;7658;51.456;7.622;2023-11-19T13:19:02;15.70;;;5.82;;
15114;SDS011;7658;51.456;7.622;2023-11-19T13:21:28;21.88;;;6.00;;
15114;SDS011;7658;51.456;7.622;2023-11-19T13:23:55;22.25;;;6.55;;
15114;SDS011;7658;51.456;7.622;2023-11-19T13:26:21;16.13;;;6.10;;
15114;SDS011;7658;51.456;7.622;2023-11-19T13:28:47;16.60;;;5.07;;
15114;SDS011;7658;51.456;7.622;2023-11-19T13:31:13;18.23;;;5.72;;
15114;SDS011;7658;51.456;7.622;2023-11-19T13:33:39;19.15;;;5.30;;
15114;SDS011;7658;51.456;7.622;2023-11-19T13:36:05;17.40;;;5.45;;
15114;SDS011;7658;51.456;7.622;2023-11-19T13:38:33;25.55;;;7.55;;
15114;SDS011;7658;51.456;7.622;2023-11-19T13:41:02;20.65;;;5.85;;
15114;SDS011;7658;51.456;7.622;2023-11-19T13:43:32;17.55;;;5.97;;
15114;SDS011;7658;51.456;7.622;2023-11-19T13:45:58;19.33;;;5.60;;
15114;SDS011;7658;51.456;7.622;2023-11-19T13:48:24;15.63;;;5.70;;
15114;SDS011;7658;51.456;7.622;2023-11-19T13:50:51;18.88;;;5.82;;
15114;SDS011;7658;51.456;7.622;2023-11-19T13:53:17;15.02;;;5.05;;
15114;SDS011;7658;51.456;7.622;2023-11-19T13:55:43;12.75;;;4.97;;
15114;SDS011;7658;51.456;7.622;2023-11-19T13:58:09;16.17;;;5.65;;
15114;SDS011;7658;51.456;7.622;2023-11-19T14:00:36;12.20;;;5.22;;
15114;SDS011;7658;51.456;7.622;2023-11-19T14:03:02;10.73;;;4.45;;
15114;SDS011;7658;51.456;7.622;2023-11-19T14:05:28;15.07;;;5.65;;
15114;SDS011;7658;51.456;7.622;2023-11-19T14:07:54;13.75;;;5.47;;
15114;SDS011;7658;51.456;7.622;2023-11-19T14:10:21;16.88;;;5.68;;
15114;SDS011;7658;51.456;7.622;2023-11-19T14:12:48;18.83;;;5.43;;
15114;SDS011;7658;51.456;7.622;2023-11-19T14:15:14;16.60;;;5.18;;
15114;SDS011;7658;51.456;7.622;2023-11-19T14:17:42;13.50;;;5.25;;
15114;SDS011;7658;51.456;7.622;2023-11-19T14:20:08;18.15;;;5.53;;
15114;SDS011;7658;51.456;7.622;2023-11-19T14:22:42;16.33;;;4.82;;
15114;SDS011;7658;51.456;7.622;2023-11-19T14:25:09;15.27;;;5.07;;
15114;SDS011;7658;51.456;7.622;2023-11-19T14:27:42;18.83;;;5.93;;
15114;SDS011;7658;51.456;7.622;2023-11-19T14:30:09;20.05;;;5.88;;
15114;SDS011;7658;51.456;7.622;2023-11-19T14:32:36;20.52;;;5.85;;
15114;SDS011;7658;51.456;7.622;2023-11-19T14:35:03;24.13;;;6.05;;
15114;SDS011;7658;51.456;7.622;2023-11-19T14:37:30;21.25;;;5.90;;
15114;SDS011;7658;51.456;7.622;2023-11-19T14:39:56;20.40;;;6.70;;
15114;SDS011;7658;51.456;7.622;2023-11-19T14:42:23;16.80;;;5.93;;
15114;SDS011;7658;51.456;7.622;2023-11-19T14:44:50;15.10;;;5.25;;
15114;SDS011;7658;51.456;7.622;2023-11-19T14:47:18;16.13;;;5.82;;
15114;SDS011;7658;51.456;7.622;2023-11-19T14:49:44;11.68;;;5.38;;
15114;SDS011;7658;51.456;7.622;2023-11-19T14:52:10;23.08;;;8.35;;
15114;SDS011;7658;51.456;7.622;2023-11-19T14:54:36;17.10;;;5.88;;
15114;SDS011;7658;51.456;7.622;2023-11-19T14:57:03;21.70;;;6.78;;
15114;SDS011;7658;51.456;7.622;2023-11-19T14:59:29;15.57;;;7.75;;
15114;SDS011;7658;51.456;7.622;2023-11-19T15:01:55;20.88;;;6.30;;
15114;SDS011;7658;51.456;7.622;2023-11-19T15:04:22;21.10;;;5.63;;
15114;SDS011;7658;51.456;7.622;2023-11-19T15:06:48;16.58;;;5.35;;
15114;SDS011;7658;51.456;7.622;2023-11-19T15:09:13;23.23;;;6.20;;
15114;SDS011;7658;51.456;7.622;2023-11-19T15:11:44;18.70;;;5.97;;
15114;SDS011;7658;51.456;7.622;2023-11-19T15:14:11;19.33;;;5.97;;
15114;SDS011;7658;51.456;7.622;2023-11-19T15:16:44;24.15;;;6.65;;
15114;SDS011;7658;51.456;7.622;2023-11-19T15:19:10;23.77;;;6.95;;
15114;SDS011;7658;51.456;7.622;2023-11-19T15:21:40;17.05;;;6.53;;
15114;SDS011;7658;51.456;7.622;2023-11-19T15:24:07;18.52;;;6.55;;
15114;SDS011;7658;51.456;7.622;2023-11-19T15:26:34;21.90;;;6.30;;
15114;SDS011;7658;51.456;7.622;2023-11-19T15:29:00;18.70;;;6.47;;
15114;SDS011;7658;51.456;7.622;2023-11-19T15:31:27;15.27;;;5.95;;